Skip Navigation Links Skip Navigation Links

Current Weather

Tegel Apt, Berlin

For information only: do not use for flight planning or navigation.
Latest weather
Observation time Wednesday, August 12, 2020 7:20 PM CEST
Local time Wednesday, August 12, 2020 7:43 PM CEST
Flight conditions Visual Meteorological Conditions
Winds
Wind direction East-Northeast (70°)
Winds variable from 30° to 120°
Wind speed 7 mph
Visibility 6.2 mi.
Sky condition
Ceiling unlimited
Sky clear
Temperature 86°F
Dewpoint 45°F
Altimeter 30.00 in.Hg
Derived measurements
Relative humidity 24%
Heat index 86°F
Density altitude 1896 ft.
Remarks
Ceiling and visibility OK.
No significant changes expected in the next two hours.
METAR EDDT 121720Z 07006KT 030V120 CAVOK 30/07 Q1016 NOSIG

Settings

Location code

InnerDrive.Weather 4.0.6770.0 Release CLR 4.0.30319.42000
Copyright ©2018 Inner Drive Technology. All rights reserved. Portions Copyright ©1986-2018 David Braverman.

Find weather

Site navigation


Skip Navigation Links

Place info

Page info

PayPal - The safer, easier way to pay online!

Return home.

Copyright ©2020 Inner Drive Technology. Purveyors of fine, hand-crafted computer software. Page printed 2020-08-12T17:43:31 UTC.